sensor_id;sensor_type;location;lat;lon;timestamp;pressure;altitude;pressure_sealevel;temperature;humidity
69772;BME280;57046;45.988;18.664;2022-10-23T00:01:16;101298.56;;;13.92;100.00
69772;BME280;57046;45.988;18.664;2022-10-23T00:03:42;101265.34;;;13.69;100.00
69772;BME280;57046;45.988;18.664;2022-10-23T00:06:08;101299.84;;;13.95;100.00
69772;BME280;57046;45.988;18.664;2022-10-23T00:08:33;101293.78;;;13.81;100.00
69772;BME280;57046;45.988;18.664;2022-10-23T00:10:59;101318.38;;;13.93;100.00
69772;BME280;57046;45.988;18.664;2022-10-23T00:13:24;101299.22;;;13.81;100.00
69772;BME280;57046;45.988;18.664;2022-10-23T00:15:49;101296.97;;;13.83;100.00
69772;BME280;57046;45.988;18.664;2022-10-23T00:18:14;101315.34;;;13.86;100.00
69772;BME280;57046;45.988;18.664;2022-10-23T00:20:40;101311.66;;;13.82;100.00
69772;BME280;57046;45.988;18.664;2022-10-23T00:23:05;101277.50;;;13.63;100.00
69772;BME280;57046;45.988;18.664;2022-10-23T00:25:30;101307.38;;;13.81;100.00
69772;BME280;57046;45.988;18.664;2022-10-23T00:27:56;101292.97;;;13.71;100.00
69772;BME280;57046;45.988;18.664;2022-10-23T00:30:21;101318.88;;;13.86;100.00
69772;BME280;57046;45.988;18.664;2022-10-23T00:32:46;101315.69;;;13.84;100.00
69772;BME280;57046;45.988;18.664;2022-10-23T00:35:12;101321.44;;;13.91;100.00
69772;BME280;57046;45.988;18.664;2022-10-23T00:37:37;101327.81;;;13.87;100.00
69772;BME280;57046;45.988;18.664;2022-10-23T00:40:03;101324.00;;;13.88;100.00
69772;BME280;57046;45.988;18.664;2022-10-23T00:42:29;101339.78;;;13.86;100.00
69772;BME280;57046;45.988;18.664;2022-10-23T00:47:20;101305.44;;;13.72;100.00
69772;BME280;57046;45.988;18.664;2022-10-23T00:49:45;101309.75;;;13.73;100.00
69772;BME280;57046;45.988;18.664;2022-10-23T00:52:11;101310.38;;;13.79;100.00
69772;BME280;57046;45.988;18.664;2022-10-23T00:54:41;101325.91;;;13.87;100.00
69772;BME280;57046;45.988;18.664;2022-10-23T00:57:11;101347.00;;;13.90;100.00
69772;BME280;57046;45.988;18.664;2022-10-23T00:59:37;101327.47;;;13.88;100.00
69772;BME280;57046;45.988;18.664;2022-10-23T01:02:04;101339.97;;;13.89;100.00
69772;BME280;57046;45.988;18.664;2022-10-23T01:04:29;101342.50;;;13.86;100.00
69772;BME280;57046;45.988;18.664;2022-10-23T01:07:17;101341.41;;;13.87;100.00
69772;BME280;57046;45.988;18.664;2022-10-23T01:17:58;101310.56;;;13.74;100.00
69772;BME280;57046;45.988;18.664;2022-10-23T01:20:44;101327.31;;;13.85;100.00
69772;BME280;57046;45.988;18.664;2022-10-23T01:28:42;101302.75;;;13.64;100.00
69772;BME280;57046;45.988;18.664;2022-10-23T01:31:14;101300.16;;;13.59;100.00
69772;BME280;57046;45.988;18.664;2022-10-23T01:33:44;101309.59;;;13.61;100.00
69772;BME280;57046;45.988;18.664;2022-10-23T01:36:13;101281.47;;;13.40;100.00
69772;BME280;57046;45.988;18.664;2022-10-23T01:41:22;101302.22;;;13.45;100.00
69772;BME280;57046;45.988;18.664;2022-10-23T01:46:39;101313.59;;;13.47;100.00
69772;BME280;57046;45.988;18.664;2022-10-23T01:49:07;101320.47;;;13.53;100.00
69772;BME280;57046;45.988;18.664;2022-10-23T01:51:35;101298.88;;;13.39;100.00
69772;BME280;57046;45.988;18.664;2022-10-23T01:54:05;101314.53;;;13.51;100.00
69772;BME280;57046;45.988;18.664;2022-10-23T01:56:32;101317.25;;;13.51;100.00
69772;BME280;57046;45.988;18.664;2022-10-23T01:59:07;101312.94;;;13.50;100.00
69772;BME280;57046;45.988;18.664;2022-10-23T02:01:33;101295.34;;;13.39;100.00
69772;BME280;57046;45.988;18.664;2022-10-23T02:04:04;101294.25;;;13.40;100.00
69772;BME280;57046;45.988;18.664;2022-10-23T02:06:30;101309.59;;;13.53;100.00
69772;BME280;57046;45.988;18.664;2022-10-23T02:08:56;101313.75;;;13.50;100.00
69772;BME280;57046;45.988;18.664;2022-10-23T02:11:21;101313.41;;;13.52;100.00
69772;BME280;57046;45.988;18.664;2022-10-23T02:14:03;101320.13;;;13.54;100.00
69772;BME280;57046;45.988;18.664;2022-10-23T02:24:26;101292.19;;;13.54;100.00
69772;BME280;57046;45.988;18.664;2022-10-23T02:26:55;101319.19;;;13.76;100.00
69772;BME280;57046;45.988;18.664;2022-10-23T02:29:29;101306.06;;;13.61;100.00
69772;BME280;57046;45.988;18.664;2022-10-23T02:31:55;101308.47;;;13.71;100.00
69772;BME280;57046;45.988;18.664;2022-10-23T02:34:21;101338.06;;;13.81;100.00
69772;BME280;57046;45.988;18.664;2022-10-23T02:36:46;101308.97;;;13.73;100.00
69772;BME280;57046;45.988;18.664;2022-10-23T02:39:11;101337.25;;;13.81;100.00
69772;BME280;57046;45.988;18.664;2022-10-23T02:41:48;101329.72;;;13.86;100.00
69772;BME280;57046;45.988;18.664;2022-10-23T02:44:25;101327.31;;;13.85;100.00
69772;BME280;57046;45.988;18.664;2022-10-23T02:52:14;101331.81;;;13.81;100.00
69772;BME280;57046;45.988;18.664;2022-10-23T02:54:56;101325.56;;;13.71;100.00
69772;BME280;57046;45.988;18.664;2022-10-23T02:57:31;101334.84;;;13.70;100.00
69772;BME280;57046;45.988;18.664;2022-10-23T03:00:09;101348.75;;;13.77;100.00
69772;BME280;57046;45.988;18.664;2022-10-23T03:03:01;101353.06;;;13.87;100.00
69772;BME280;57046;45.988;18.664;2022-10-23T03:05:31;101349.22;;;13.80;100.00
69772;BME280;57046;45.988;18.664;2022-10-23T03:07:57;101346.84;;;13.87;100.00
69772;BME280;57046;45.988;18.664;2022-10-23T03:10:22;101349.41;;;13.83;100.00
69772;BME280;57046;45.988;18.664;2022-10-23T03:12:48;101346.34;;;13.76;100.00
69772;BME280;57046;45.988;18.664;2022-10-23T03:15:14;101322.22;;;13.66;100.00
69772;BME280;57046;45.988;18.664;2022-10-23T03:17:40;101304.00;;;13.58;100.00
69772;BME280;57046;45.988;18.664;2022-10-23T03:20:06;101346.97;;;13.82;100.00
69772;BME280;57046;45.988;18.664;2022-10-23T03:22:31;101336.25;;;13.68;100.00
69772;BME280;57046;45.988;18.664;2022-10-23T03:24:57;101342.97;;;13.62;100.00
69772;BME280;57046;45.988;18.664;2022-10-23T03:27:22;101346.50;;;13.80;100.00
69772;BME280;57046;45.988;18.664;2022-10-23T03:29:47;101296.97;;;13.40;100.00
69772;BME280;57046;45.988;18.664;2022-10-23T03:32:13;101361.53;;;13.77;100.00
69772;BME280;57046;45.988;18.664;2022-10-23T03:34:38;101364.91;;;13.74;100.00
69772;BME280;57046;45.988;18.664;2022-10-23T03:37:04;101350.31;;;13.61;100.00
69772;BME280;57046;45.988;18.664;2022-10-23T03:39:29;101364.56;;;13.67;100.00
69772;BME280;57046;45.988;18.664;2022-10-23T03:41:54;101374.16;;;13.73;100.00
69772;BME280;57046;45.988;18.664;2022-10-23T03:44:20;101360.72;;;13.68;100.00
69772;BME280;57046;45.988;18.664;2022-10-23T03:46:45;101341.25;;;13.57;100.00
69772;BME280;57046;45.988;18.664;2022-10-23T03:49:10;101373.66;;;13.71;100.00
69772;BME280;57046;45.988;18.664;2022-10-23T03:51:36;101347.94;;;13.60;100.00
69772;BME280;57046;45.988;18.664;2022-10-23T03:54:01;101338.97;;;13.68;100.00
69772;BME280;57046;45.988;18.664;2022-10-23T03:56:26;101360.41;;;13.78;100.00
69772;BME280;57046;45.988;18.664;2022-10-23T03:58:52;101359.00;;;13.81;100.00
69772;BME280;57046;45.988;18.664;2022-10-23T04:01:17;101355.59;;;13.75;100.00
69772;BME280;57046;45.988;18.664;2022-10-23T04:03:42;101360.41;;;13.78;100.00
69772;BME280;57046;45.988;18.664;2022-10-23T04:06:08;101349.38;;;13.74;100.00
69772;BME280;57046;45.988;18.664;2022-10-23T04:08:33;101343.78;;;13.80;100.00
69772;BME280;57046;45.988;18.664;2022-10-23T04:10:58;101340.75;;;13.72;100.00
69772;BME280;57046;45.988;18.664;2022-10-23T04:13:24;101346.81;;;13.69;100.00
69772;BME280;57046;45.988;18.664;2022-10-23T04:15:50;101333.22;;;13.61;100.00
69772;BME280;57046;45.988;18.664;2022-10-23T04:18:16;101360.56;;;13.82;100.00
69772;BME280;57046;45.988;18.664;2022-10-23T04:20:42;101330.38;;;13.57;100.00
69772;BME280;57046;45.988;18.664;2022-10-23T04:23:07;101366.47;;;13.75;100.00
69772;BME280;57046;45.988;18.664;2022-10-23T04:25:33;101336.75;;;13.61;100.00
69772;BME280;57046;45.988;18.664;2022-10-23T04:27:58;101364.56;;;13.75;100.00
69772;BME280;57046;45.988;18.664;2022-10-23T04:30:23;101334.66;;;13.58;100.00
69772;BME280;57046;45.988;18.664;2022-10-23T04:32:49;101362.97;;;13.66;100.00
69772;BME280;57046;45.988;18.664;2022-10-23T04:35:15;101339.13;;;13.54;100.00
69772;BME280;57046;45.988;18.664;2022-10-23T04:37:40;101352.91;;;13.66;100.00
69772;BME280;57046;45.988;18.664;2022-10-23T04:40:06;101354.31;;;13.55;100.00
69772;BME280;57046;45.988;18.664;2022-10-23T04:42:31;101361.81;;;13.58;100.00
69772;BME280;57046;45.988;18.664;2022-10-23T04:44:57;101345.84;;;13.48;100.00
69772;BME280;57046;45.988;18.664;2022-10-23T04:47:22;101351.59;;;13.47;100.00
69772;BME280;57046;45.988;18.664;2022-10-23T04:49:47;101299.31;;;13.15;100.00
69772;BME280;57046;45.988;18.664;2022-10-23T04:52:13;101324.09;;;13.31;100.00
69772;BME280;57046;45.988;18.664;2022-10-23T04:54:38;101357.19;;;13.59;100.00
69772;BME280;57046;45.988;18.664;2022-10-23T04:57:04;101353.69;;;13.58;100.00
69772;BME280;57046;45.988;18.664;2022-10-23T04:59:29;101354.00;;;13.57;100.00
69772;BME280;57046;45.988;18.664;2022-10-23T05:01:54;101368.22;;;13.62;100.00
69772;BME280;57046;45.988;18.664;2022-10-23T05:04:19;101338.16;;;13.42;100.00
69772;BME280;57046;45.988;18.664;2022-10-23T05:06:45;101359.91;;;13.59;100.00
69772;BME280;57046;45.988;18.664;2022-10-23T05:09:11;101377.50;;;13.70;100.00
69772;BME280;57046;45.988;18.664;2022-10-23T05:11:43;101375.44;;;13.67;100.00
69772;BME280;57046;45.988;18.664;2022-10-23T05:14:13;101373.03;;;13.57;100.00
69772;BME280;57046;45.988;18.664;2022-10-23T05:19:17;101382.75;;;13.58;100.00
69772;BME280;57046;45.988;18.664;2022-10-23T05:21:48;101361.97;;;13.45;100.00
69772;BME280;57046;45.988;18.664;2022-10-23T05:24:14;101342.44;;;13.34;100.00
69772;BME280;57046;45.988;18.664;2022-10-23T05:26:40;101381.97;;;13.57;100.00
69772;BME280;57046;45.988;18.664;2022-10-23T05:29:05;101366.75;;;13.48;100.00
69772;BME280;57046;45.988;18.664;2022-10-23T05:31:32;101387.53;;;13.52;100.00
69772;BME280;57046;45.988;18.664;2022-10-23T05:33:59;101367.25;;;13.50;100.00
69772;BME280;57046;45.988;18.664;2022-10-23T05:36:26;101389.31;;;13.57;100.00
69772;BME280;57046;45.988;18.664;2022-10-23T05:38:52;101379.09;;;13.54;100.00
69772;BME280;57046;45.988;18.664;2022-10-23T05:41:18;101344.06;;;13.27;100.00
69772;BME280;57046;45.988;18.664;2022-10-23T05:43:44;101381.66;;;13.59;100.00
69772;BME280;57046;45.988;18.664;2022-10-23T05:46:09;101339.91;;;13.29;100.00
69772;BME280;57046;45.988;18.664;2022-10-23T05:48:34;101383.88;;;13.57;100.00
69772;BME280;57046;45.988;18.664;2022-10-23T05:51:04;101386.59;;;13.57;100.00
69772;BME280;57046;45.988;18.664;2022-10-23T05:53:31;101370.75;;;13.42;100.00
69772;BME280;57046;45.988;18.664;2022-10-23T05:56:07;101377.31;;;13.49;100.00
69772;BME280;57046;45.988;18.664;2022-10-23T05:58:33;101390.72;;;13.54;100.00
69772;BME280;57046;45.988;18.664;2022-10-23T06:01:03;101393.63;;;13.58;100.00
69772;BME280;57046;45.988;18.664;2022-10-23T06:03:29;101380.66;;;13.46;100.00
69772;BME280;57046;45.988;18.664;2022-10-23T06:05:55;101368.78;;;13.34;100.00
69772;BME280;57046;45.988;18.664;2022-10-23T06:08:20;101396.97;;;13.55;100.00
69772;BME280;57046;45.988;18.664;2022-10-23T06:10:45;101398.28;;;13.57;100.00
69772;BME280;57046;45.988;18.664;2022-10-23T06:13:11;101397.94;;;13.50;100.00
69772;BME280;57046;45.988;18.664;2022-10-23T06:15:36;101409.75;;;13.54;100.00
69772;BME280;57046;45.988;18.664;2022-10-23T06:18:25;101393.56;;;13.41;100.00
69772;BME280;57046;45.988;18.664;2022-10-23T06:20:50;101388.78;;;13.38;100.00
69772;BME280;57046;45.988;18.664;2022-10-23T06:23:15;101389.75;;;13.42;100.00
69772;BME280;57046;45.988;18.664;2022-10-23T06:25:41;101415.97;;;13.55;100.00
69772;BME280;57046;45.988;18.664;2022-10-23T06:28:06;101394.53;;;13.45;100.00
69772;BME280;57046;45.988;18.664;2022-10-23T06:30:32;101426.72;;;13.60;100.00
69772;BME280;57046;45.988;18.664;2022-10-23T06:32:57;101365.94;;;13.30;100.00
69772;BME280;57046;45.988;18.664;2022-10-23T06:35:22;101416.66;;;13.60;100.00
69772;BME280;57046;45.988;18.664;2022-10-23T06:37:47;101428.63;;;13.68;100.00
69772;BME280;57046;45.988;18.664;2022-10-23T06:40:13;101424.78;;;13.60;100.00
69772;BME280;57046;45.988;18.664;2022-10-23T06:42:38;101428.97;;;13.66;100.00
69772;BME280;57046;45.988;18.664;2022-10-23T06:45:04;101412.47;;;13.54;100.00
69772;BME280;57046;45.988;18.664;2022-10-23T06:47:30;101412.91;;;13.48;100.00
69772;BME280;57046;45.988;18.664;2022-10-23T06:49:55;101436.94;;;13.63;100.00
69772;BME280;57046;45.988;18.664;2022-10-23T06:52:21;101449.72;;;13.71;100.00
69772;BME280;57046;45.988;18.664;2022-10-23T06:54:46;101448.94;;;13.70;100.00
69772;BME280;57046;45.988;18.664;2022-10-23T06:57:11;101447.81;;;13.71;100.00
69772;BME280;57046;45.988;18.664;2022-10-23T06:59:37;101446.69;;;13.72;100.00
69772;BME280;57046;45.988;18.664;2022-10-23T07:02:02;101442.53;;;13.75;100.00
69772;BME280;57046;45.988;18.664;2022-10-23T07:04:27;101434.22;;;13.71;100.00
69772;BME280;57046;45.988;18.664;2022-10-23T07:06:56;101388.00;;;13.46;100.00
69772;BME280;57046;45.988;18.664;2022-10-23T07:09:21;101420.31;;;13.64;100.00
69772;BME280;57046;45.988;18.664;2022-10-23T07:11:46;101443.69;;;13.83;100.00
69772;BME280;57046;45.988;18.664;2022-10-23T07:14:12;101424.34;;;13.67;100.00
69772;BME280;57046;45.988;18.664;2022-10-23T07:16:37;101435.19;;;13.75;100.00
69772;BME280;57046;45.988;18.664;2022-10-23T07:19:02;101427.84;;;13.76;100.00
69772;BME280;57046;45.988;18.664;2022-10-23T07:21:30;101433.28;;;13.85;100.00
69772;BME280;57046;45.988;18.664;2022-10-23T07:24:00;101406.59;;;13.78;100.00
69772;BME280;57046;45.988;18.664;2022-10-23T07:26:26;101434.44;;;13.92;100.00
69772;BME280;57046;45.988;18.664;2022-10-23T07:28:52;101362.97;;;13.57;100.00
69772;BME280;57046;45.988;18.664;2022-10-23T07:31:17;101445.00;;;14.11;100.00
69772;BME280;57046;45.988;18.664;2022-10-23T07:33:42;101421.47;;;13.89;100.00
69772;BME280;57046;45.988;18.664;2022-10-23T07:36:08;101428.69;;;13.94;100.00
69772;BME280;57046;45.988;18.664;2022-10-23T07:38:34;101416.84;;;14.07;100.00
69772;BME280;57046;45.988;18.664;2022-10-23T07:41:00;101434.59;;;14.13;100.00
69772;BME280;57046;45.988;18.664;2022-10-23T07:43:26;101447.41;;;14.21;100.00
69772;BME280;57046;45.988;18.664;2022-10-23T07:45:52;101443.09;;;14.20;100.00
69772;BME280;57046;45.988;18.664;2022-10-23T07:48:18;101445.63;;;14.16;100.00
69772;BME280;57046;45.988;18.664;2022-10-23T07:50:45;101419.88;;;14.05;100.00
69772;BME280;57046;45.988;18.664;2022-10-23T07:53:22;101434.94;;;14.11;100.00
69772;BME280;57046;45.988;18.664;2022-10-23T07:56:02;101440.69;;;14.10;100.00
69772;BME280;57046;45.988;18.664;2022-10-23T07:58:28;101456.84;;;14.23;100.00
69772;BME280;57046;45.988;18.664;2022-10-23T08:01:01;101454.28;;;14.27;100.00
69772;BME280;57046;45.988;18.664;2022-10-23T08:03:32;101428.22;;;14.17;100.00
69772;BME280;57046;45.988;18.664;2022-10-23T08:05:58;101453.53;;;14.35;100.00
69772;BME280;57046;45.988;18.664;2022-10-23T08:08:23;101431.91;;;14.21;100.00
69772;BME280;57046;45.988;18.664;2022-10-23T08:10:50;101434.94;;;14.28;100.00
69772;BME280;57046;45.988;18.664;2022-10-23T08:13:16;101400.69;;;14.02;100.00
69772;BME280;57046;45.988;18.664;2022-10-23T08:15:42;101453.19;;;14.37;100.00
69772;BME280;57046;45.988;18.664;2022-10-23T08:18:07;101462.78;;;14.43;100.00
69772;BME280;57046;45.988;18.664;2022-10-23T08:20:40;101465.66;;;14.46;100.00
69772;BME280;57046;45.988;18.664;2022-10-23T08:23:06;101458.63;;;14.45;100.00
69772;BME280;57046;45.988;18.664;2022-10-23T08:25:32;101437.84;;;14.41;100.00
69772;BME280;57046;45.988;18.664;2022-10-23T08:27:57;101417.03;;;14.27;100.00
69772;BME280;57046;45.988;18.664;2022-10-23T08:30:22;101436.56;;;14.38;100.00
69772;BME280;57046;45.988;18.664;2022-10-23T08:32:48;101427.09;;;14.36;100.00
69772;BME280;57046;45.988;18.664;2022-10-23T08:35:13;101445.50;;;14.47;100.00
69772;BME280;57046;45.988;18.664;2022-10-23T08:37:38;101437.34;;;14.47;100.00
69772;BME280;57046;45.988;18.664;2022-10-23T08:40:04;101453.97;;;14.63;100.00
69772;BME280;57046;45.988;18.664;2022-10-23T08:42:30;101424.41;;;14.44;100.00
69772;BME280;57046;45.988;18.664;2022-10-23T08:47:52;101462.47;;;14.61;100.00
69772;BME280;57046;45.988;18.664;2022-10-23T08:50:26;101439.09;;;14.43;100.00
69772;BME280;57046;45.988;18.664;2022-10-23T08:53:04;101457.16;;;14.56;100.00
69772;BME280;57046;45.988;18.664;2022-10-23T08:55:44;101464.22;;;14.57;100.00
69772;BME280;57046;45.988;18.664;2022-10-23T09:00:48;101469.47;;;14.71;100.00
69772;BME280;57046;45.988;18.664;2022-10-23T09:03:14;101457.97;;;14.57;100.00
69772;BME280;57046;45.988;18.664;2022-10-23T09:06:04;101466.28;;;14.60;100.00
69772;BME280;57046;45.988;18.664;2022-10-23T09:11:03;101447.44;;;14.55;100.00
69772;BME280;57046;45.988;18.664;2022-10-23T09:19:16;101442.31;;;14.62;100.00
69772;BME280;57046;45.988;18.664;2022-10-23T09:21:47;101450.94;;;14.64;100.00
69772;BME280;57046;45.988;18.664;2022-10-23T09:24:14;101476.50;;;14.89;100.00
69772;BME280;57046;45.988;18.664;2022-10-23T09:26:39;101471.22;;;14.93;100.00
69772;BME280;57046;45.988;18.664;2022-10-23T09:29:23;101429.16;;;14.64;100.00
69772;BME280;57046;45.988;18.664;2022-10-23T09:31:51;101440.66;;;14.70;100.00
69772;BME280;57046;45.988;18.664;2022-10-23T09:34:22;101468.66;;;14.88;100.00
69772;BME280;57046;45.988;18.664;2022-10-23T09:36:50;101456.34;;;14.82;100.00
69772;BME280;57046;45.988;18.664;2022-10-23T09:39:30;101462.56;;;14.99;100.00
69772;BME280;57046;45.988;18.664;2022-10-23T09:41:56;101456.91;;;15.04;100.00
69772;BME280;57046;45.988;18.664;2022-10-23T09:44:28;101413.25;;;14.84;100.00
69772;BME280;57046;45.988;18.664;2022-10-23T09:47:15;101447.47;;;15.10;100.00
69772;BME280;57046;45.988;18.664;2022-10-23T09:49:50;101443.31;;;15.04;100.00
69772;BME280;57046;45.988;18.664;2022-10-23T09:59:51;101459.31;;;15.06;100.00
69772;BME280;57046;45.988;18.664;2022-10-23T10:02:31;101487.47;;;15.18;100.00
69772;BME280;57046;45.988;18.664;2022-10-23T10:05:10;101486.06;;;15.12;100.00
69772;BME280;57046;45.988;18.664;2022-10-23T10:07:35;101466.19;;;15.12;100.00
69772;BME280;57046;45.988;18.664;2022-10-23T10:10:01;101452.91;;;15.10;100.00
69772;BME280;57046;45.988;18.664;2022-10-23T10:23:00;101452.03;;;15.65;100.00
69772;BME280;57046;45.988;18.664;2022-10-23T10:39:34;101413.06;;;16.47;100.00
69772;BME280;57046;45.988;18.664;2022-10-23T10:47:48;101407.09;;;16.33;100.00
69772;BME280;57046;45.988;18.664;2022-10-23T10:52:54;101391.50;;;16.21;100.00
69772;BME280;57046;45.988;18.664;2022-10-23T11:00:34;101330.16;;;15.95;100.00
69772;BME280;57046;45.988;18.664;2022-10-23T11:03:08;101373.13;;;16.10;100.00
69772;BME280;57046;45.988;18.664;2022-10-23T11:05:43;101385.56;;;16.19;100.00
69772;BME280;57046;45.988;18.664;2022-10-23T11:08:18;101387.03;;;16.17;100.00
69772;BME280;57046;45.988;18.664;2022-10-23T11:10:51;101377.16;;;16.12;100.00
69772;BME280;57046;45.988;18.664;2022-10-23T11:13:38;101372.66;;;16.28;100.00
69772;BME280;57046;45.988;18.664;2022-10-23T11:16:20;101378.75;;;16.46;100.00
69772;BME280;57046;45.988;18.664;2022-10-23T11:19:09;101349.69;;;16.29;100.00
69772;BME280;57046;45.988;18.664;2022-10-23T11:21:53;101376.94;;;16.50;100.00
69772;BME280;57046;45.988;18.664;2022-10-23T11:30:16;101366.75;;;16.59;100.00
69772;BME280;57046;45.988;18.664;2022-10-23T11:38:32;101355.03;;;16.59;100.00
69772;BME280;57046;45.988;18.664;2022-10-23T11:41:04;101351.19;;;16.60;100.00
69772;BME280;57046;45.988;18.664;2022-10-23T11:43:53;101359.25;;;16.56;100.00
69772;BME280;57046;45.988;18.664;2022-10-23T11:46:30;101342.53;;;16.58;100.00
69772;BME280;57046;45.988;18.664;2022-10-23T11:48:56;101324.50;;;16.45;100.00
69772;BME280;57046;45.988;18.664;2022-10-23T11:51:38;101346.13;;;16.50;100.00
69772;BME280;57046;45.988;18.664;2022-10-23T11:54:20;101340.19;;;16.48;100.00
69772;BME280;57046;45.988;18.664;2022-10-23T11:56:53;101243.44;;;15.88;100.00
69772;BME280;57046;45.988;18.664;2022-10-23T11:59:31;101173.59;;;15.30;100.00
69772;BME280;57046;45.988;18.664;2022-10-23T12:02:20;101246.19;;;15.88;100.00
69772;BME280;57046;45.988;18.664;2022-10-23T12:04:50;101142.03;;;15.29;100.00
69772;BME280;57046;45.988;18.664;2022-10-23T12:07:29;101190.69;;;15.72;100.00
69772;BME280;57046;45.988;18.664;2022-10-23T12:10:28;101321.81;;;16.57;100.00
69772;BME280;57046;45.988;18.664;2022-10-23T12:13:00;101271.59;;;16.25;100.00
69772;BME280;57046;45.988;18.664;2022-10-23T12:15:27;101312.88;;;16.68;100.00
69772;BME280;57046;45.988;18.664;2022-10-23T12:18:05;101300.34;;;16.67;100.00
69772;BME280;57046;45.988;18.664;2022-10-23T12:20:49;101250.16;;;16.48;100.00
69772;BME280;57046;45.988;18.664;2022-10-23T12:23:46;101292.97;;;16.80;100.00
69772;BME280;57046;45.988;18.664;2022-10-23T12:26:21;101280.47;;;16.79;100.00
69772;BME280;57046;45.988;18.664;2022-10-23T12:38:56;101193.41;;;16.41;100.00
69772;BME280;57046;45.988;18.664;2022-10-23T12:41:27;101255.88;;;16.79;100.00
69772;BME280;57046;45.988;18.664;2022-10-23T12:43:58;101275.09;;;16.95;100.00
69772;BME280;57046;45.988;18.664;2022-10-23T12:46:58;101273.75;;;17.01;100.00
69772;BME280;57046;45.988;18.664;2022-10-23T12:49:27;101267.59;;;16.92;100.00
69772;BME280;57046;45.988;18.664;2022-10-23T12:51:55;101264.06;;;17.03;100.00
69772;BME280;57046;45.988;18.664;2022-10-23T12:54:20;101268.28;;;17.01;100.00
69772;BME280;57046;45.988;18.664;2022-10-23T12:56:46;101207.44;;;16.64;100.00
69772;BME280;57046;45.988;18.664;2022-10-23T12:59:38;101261.22;;;17.00;100.00
69772;BME280;57046;45.988;18.664;2022-10-23T13:02:33;101260.97;;;17.05;100.00
69772;BME280;57046;45.988;18.664;2022-10-23T13:05:02;101248.25;;;16.97;100.00
69772;BME280;57046;45.988;18.664;2022-10-23T13:07:31;101256.31;;;17.05;100.00
69772;BME280;57046;45.988;18.664;2022-10-23T13:09:58;101222.78;;;16.93;100.00
69772;BME280;57046;45.988;18.664;2022-10-23T13:12:29;101228.00;;;16.86;100.00
69772;BME280;57046;45.988;18.664;2022-10-23T13:17:46;101228.56;;;17.03;100.00
69772;BME280;57046;45.988;18.664;2022-10-23T13:25:25;101222.38;;;17.18;100.00
69772;BME280;57046;45.988;18.664;2022-10-23T13:28:10;101198.97;;;17.05;100.00
69772;BME280;57046;45.988;18.664;2022-10-23T13:30:41;101232.47;;;17.30;100.00
69772;BME280;57046;45.988;18.664;2022-10-23T13:38:41;101224.81;;;17.36;100.00
69772;BME280;57046;45.988;18.664;2022-10-23T13:41:16;101198.25;;;17.20;100.00
69772;BME280;57046;45.988;18.664;2022-10-23T13:43:44;101211.53;;;17.22;100.00
69772;BME280;57046;45.988;18.664;2022-10-23T13:46:13;101194.72;;;17.20;100.00
69772;BME280;57046;45.988;18.664;2022-10-23T13:48:39;101138.97;;;16.69;100.00
69772;BME280;57046;45.988;18.664;2022-10-23T13:51:24;101202.09;;;17.32;100.00
69772;BME280;57046;45.988;18.664;2022-10-23T13:53:51;101166.28;;;17.09;100.00
69772;BME280;57046;45.988;18.664;2022-10-23T13:56:18;101213.66;;;17.41;100.00
69772;BME280;57046;45.988;18.664;2022-10-23T13:58:43;101194.56;;;17.28;100.00
69772;BME280;57046;45.988;18.664;2022-10-23T14:03:43;101163.66;;;17.12;100.00
69772;BME280;57046;45.988;18.664;2022-10-23T14:06:08;101145.94;;;17.06;100.00
69772;BME280;57046;45.988;18.664;2022-10-23T14:08:33;101194.97;;;17.43;100.00
69772;BME280;57046;45.988;18.664;2022-10-23T14:10:59;101195.34;;;17.41;100.00
69772;BME280;57046;45.988;18.664;2022-10-23T14:13:24;101161.03;;;17.16;100.00
69772;BME280;57046;45.988;18.664;2022-10-23T14:15:53;101138.75;;;17.14;100.00
69772;BME280;57046;45.988;18.664;2022-10-23T14:18:19;101146.25;;;17.17;100.00
69772;BME280;57046;45.988;18.664;2022-10-23T14:20:45;101173.59;;;17.33;100.00
69772;BME280;57046;45.988;18.664;2022-10-23T14:23:10;101159.19;;;17.20;100.00
69772;BME280;57046;45.988;18.664;2022-10-23T14:25:36;101145.19;;;17.21;100.00
69772;BME280;57046;45.988;18.664;2022-10-23T14:28:01;101138.03;;;17.17;100.00
69772;BME280;57046;45.988;18.664;2022-10-23T14:30:27;101146.78;;;17.22;100.00
69772;BME280;57046;45.988;18.664;2022-10-23T14:32:52;101129.59;;;17.22;100.00
69772;BME280;57046;45.988;18.664;2022-10-23T14:35:17;101161.97;;;17.36;100.00
69772;BME280;57046;45.988;18.664;2022-10-23T14:37:43;101155.72;;;17.35;100.00
69772;BME280;57046;45.988;18.664;2022-10-23T14:40:08;101190.16;;;17.52;100.00
69772;BME280;57046;45.988;18.664;2022-10-23T14:42:34;101171.28;;;17.47;100.00
69772;BME280;57046;45.988;18.664;2022-10-23T14:45:00;101167.91;;;17.38;100.00
69772;BME280;57046;45.988;18.664;2022-10-23T14:47:26;101165.38;;;17.45;100.00
69772;BME280;57046;45.988;18.664;2022-10-23T14:49:51;101147.88;;;17.34;100.00
69772;BME280;57046;45.988;18.664;2022-10-23T14:52:16;101166.84;;;17.42;100.00
69772;BME280;57046;45.988;18.664;2022-10-23T14:54:42;101122.34;;;17.14;100.00